sensor_id;sensor_type;location;lat;lon;timestamp;P1;durP1;ratioP1;P2;durP2;ratioP2
37047;SDS011;23227;48.780;9.210;2022-12-18T00:00:30;50.17;;;18.75;;
37047;SDS011;23227;48.780;9.210;2022-12-18T00:03:33;53.88;;;20.70;;
37047;SDS011;23227;48.780;9.210;2022-12-18T00:06:36;54.78;;;19.85;;
37047;SDS011;23227;48.780;9.210;2022-12-18T00:09:39;64.10;;;20.83;;
37047;SDS011;23227;48.780;9.210;2022-12-18T00:12:41;61.75;;;20.38;;
37047;SDS011;23227;48.780;9.210;2022-12-18T00:15:45;56.10;;;20.60;;
37047;SDS011;23227;48.780;9.210;2022-12-18T00:18:48;52.63;;;18.13;;
37047;SDS011;23227;48.780;9.210;2022-12-18T00:24:55;59.50;;;19.35;;
37047;SDS011;23227;48.780;9.210;2022-12-18T00:27:57;60.88;;;19.67;;
37047;SDS011;23227;48.780;9.210;2022-12-18T00:31:02;56.60;;;19.17;;
37047;SDS011;23227;48.780;9.210;2022-12-18T00:34:06;66.60;;;23.25;;
37047;SDS011;23227;48.780;9.210;2022-12-18T00:37:11;65.38;;;20.77;;
37047;SDS011;23227;48.780;9.210;2022-12-18T00:40:20;59.20;;;18.35;;
37047;SDS011;23227;48.780;9.210;2022-12-18T00:43:23;65.03;;;20.33;;
37047;SDS011;23227;48.780;9.210;2022-12-18T00:46:26;61.05;;;21.40;;
37047;SDS011;23227;48.780;9.210;2022-12-18T00:49:29;62.88;;;21.83;;
37047;SDS011;23227;48.780;9.210;2022-12-18T00:52:31;62.30;;;21.63;;
37047;SDS011;23227;48.780;9.210;2022-12-18T00:55:34;61.22;;;21.83;;
37047;SDS011;23227;48.780;9.210;2022-12-18T00:58:37;58.22;;;19.25;;
37047;SDS011;23227;48.780;9.210;2022-12-18T01:01:41;71.57;;;22.10;;
37047;SDS011;23227;48.780;9.210;2022-12-18T01:04:44;63.58;;;18.25;;
37047;SDS011;23227;48.780;9.210;2022-12-18T01:07:46;68.45;;;21.20;;
37047;SDS011;23227;48.780;9.210;2022-12-18T01:10:49;60.92;;;20.35;;
37047;SDS011;23227;48.780;9.210;2022-12-18T01:13:52;62.28;;;19.63;;
37047;SDS011;23227;48.780;9.210;2022-12-18T01:16:57;57.42;;;20.10;;
37047;SDS011;23227;48.780;9.210;2022-12-18T01:20:00;67.57;;;20.05;;
37047;SDS011;23227;48.780;9.210;2022-12-18T01:23:02;66.22;;;22.08;;
37047;SDS011;23227;48.780;9.210;2022-12-18T01:26:05;68.15;;;20.35;;
37047;SDS011;23227;48.780;9.210;2022-12-18T01:32:12;60.22;;;18.02;;
37047;SDS011;23227;48.780;9.210;2022-12-18T01:35:15;60.50;;;18.38;;
37047;SDS011;23227;48.780;9.210;2022-12-18T01:38:18;59.75;;;18.58;;
37047;SDS011;23227;48.780;9.210;2022-12-18T01:41:21;58.45;;;19.95;;
37047;SDS011;23227;48.780;9.210;2022-12-18T01:48:04;56.03;;;19.67;;
37047;SDS011;23227;48.780;9.210;2022-12-18T01:51:09;53.45;;;17.45;;
37047;SDS011;23227;48.780;9.210;2022-12-18T01:54:12;62.33;;;20.73;;
37047;SDS011;23227;48.780;9.210;2022-12-18T01:57:15;62.72;;;19.85;;
37047;SDS011;23227;48.780;9.210;2022-12-18T02:00:18;64.88;;;20.77;;
37047;SDS011;23227;48.780;9.210;2022-12-18T02:03:24;60.25;;;19.63;;
37047;SDS011;23227;48.780;9.210;2022-12-18T02:06:27;47.40;;;18.05;;
37047;SDS011;23227;48.780;9.210;2022-12-18T02:09:35;60.25;;;17.83;;
37047;SDS011;23227;48.780;9.210;2022-12-18T02:12:43;55.90;;;19.05;;
37047;SDS011;23227;48.780;9.210;2022-12-18T02:15:51;51.90;;;18.45;;
37047;SDS011;23227;48.780;9.210;2022-12-18T02:19:00;54.17;;;17.45;;
37047;SDS011;23227;48.780;9.210;2022-12-18T02:22:12;58.53;;;18.55;;
37047;SDS011;23227;48.780;9.210;2022-12-18T02:25:29;57.50;;;19.48;;
37047;SDS011;23227;48.780;9.210;2022-12-18T02:28:45;59.78;;;18.55;;
37047;SDS011;23227;48.780;9.210;2022-12-18T02:31:50;55.50;;;17.13;;
37047;SDS011;23227;48.780;9.210;2022-12-18T02:34:54;50.80;;;18.42;;
37047;SDS011;23227;48.780;9.210;2022-12-18T02:37:58;50.85;;;17.40;;
37047;SDS011;23227;48.780;9.210;2022-12-18T02:41:01;50.25;;;16.45;;
37047;SDS011;23227;48.780;9.210;2022-12-18T02:44:08;50.03;;;18.35;;
37047;SDS011;23227;48.780;9.210;2022-12-18T02:47:12;54.20;;;17.35;;
37047;SDS011;23227;48.780;9.210;2022-12-18T02:56:25;48.65;;;17.80;;
37047;SDS011;23227;48.780;9.210;2022-12-18T02:59:33;55.45;;;16.67;;
37047;SDS011;23227;48.780;9.210;2022-12-18T03:02:41;52.95;;;17.08;;
37047;SDS011;23227;48.780;9.210;2022-12-18T03:05:48;65.32;;;20.83;;
37047;SDS011;23227;48.780;9.210;2022-12-18T03:08:54;48.13;;;17.27;;
37047;SDS011;23227;48.780;9.210;2022-12-18T03:12:02;52.45;;;18.63;;
37047;SDS011;23227;48.780;9.210;2022-12-18T03:15:29;50.05;;;16.92;;
37047;SDS011;23227;48.780;9.210;2022-12-18T03:18:33;47.95;;;18.05;;
37047;SDS011;23227;48.780;9.210;2022-12-18T03:21:38;42.25;;;15.82;;
37047;SDS011;23227;48.780;9.210;2022-12-18T03:24:45;49.80;;;17.25;;
37047;SDS011;23227;48.780;9.210;2022-12-18T03:27:49;52.22;;;17.05;;
37047;SDS011;23227;48.780;9.210;2022-12-18T03:30:56;49.08;;;15.30;;
37047;SDS011;23227;48.780;9.210;2022-12-18T03:34:00;54.47;;;17.27;;
37047;SDS011;23227;48.780;9.210;2022-12-18T03:37:04;43.90;;;16.30;;
37047;SDS011;23227;48.780;9.210;2022-12-18T03:40:08;50.53;;;18.02;;
37047;SDS011;23227;48.780;9.210;2022-12-18T03:43:13;48.20;;;15.57;;
37047;SDS011;23227;48.780;9.210;2022-12-18T03:46:23;46.40;;;15.20;;
37047;SDS011;23227;48.780;9.210;2022-12-18T03:49:30;48.67;;;15.85;;
37047;SDS011;23227;48.780;9.210;2022-12-18T03:52:38;44.35;;;16.15;;
37047;SDS011;23227;48.780;9.210;2022-12-18T03:55:43;49.88;;;15.30;;
37047;SDS011;23227;48.780;9.210;2022-12-18T03:58:47;48.35;;;16.15;;
37047;SDS011;23227;48.780;9.210;2022-12-18T04:01:52;50.40;;;15.98;;
37047;SDS011;23227;48.780;9.210;2022-12-18T04:04:56;54.20;;;16.70;;
37047;SDS011;23227;48.780;9.210;2022-12-18T04:08:01;47.95;;;15.35;;
37047;SDS011;23227;48.780;9.210;2022-12-18T04:11:04;44.95;;;16.77;;
37047;SDS011;23227;48.780;9.210;2022-12-18T04:14:07;38.13;;;14.73;;
37047;SDS011;23227;48.780;9.210;2022-12-18T04:17:17;34.50;;;12.18;;
37047;SDS011;23227;48.780;9.210;2022-12-18T04:20:20;49.05;;;15.98;;
37047;SDS011;23227;48.780;9.210;2022-12-18T04:23:23;42.85;;;14.48;;
37047;SDS011;23227;48.780;9.210;2022-12-18T04:26:25;40.85;;;14.02;;
37047;SDS011;23227;48.780;9.210;2022-12-18T04:29:28;39.25;;;14.30;;
37047;SDS011;23227;48.780;9.210;2022-12-18T04:32:32;38.33;;;12.90;;
37047;SDS011;23227;48.780;9.210;2022-12-18T04:35:35;35.80;;;12.60;;
37047;SDS011;23227;48.780;9.210;2022-12-18T04:38:38;46.67;;;13.20;;
37047;SDS011;23227;48.780;9.210;2022-12-18T04:41:40;30.50;;;10.38;;
37047;SDS011;23227;48.780;9.210;2022-12-18T04:44:43;31.65;;;13.65;;
37047;SDS011;23227;48.780;9.210;2022-12-18T04:47:47;22.08;;;9.73;;
37047;SDS011;23227;48.780;9.210;2022-12-18T04:50:49;38.25;;;16.13;;
37047;SDS011;23227;48.780;9.210;2022-12-18T04:53:52;30.63;;;11.50;;
37047;SDS011;23227;48.780;9.210;2022-12-18T04:56:55;28.15;;;12.52;;
37047;SDS011;23227;48.780;9.210;2022-12-18T04:59:58;32.20;;;11.32;;
37047;SDS011;23227;48.780;9.210;2022-12-18T05:03:02;43.95;;;14.10;;
37047;SDS011;23227;48.780;9.210;2022-12-18T05:06:05;41.10;;;14.70;;
37047;SDS011;23227;48.780;9.210;2022-12-18T05:09:08;44.05;;;15.55;;
37047;SDS011;23227;48.780;9.210;2022-12-18T05:12:11;44.03;;;13.95;;
37047;SDS011;23227;48.780;9.210;2022-12-18T05:15:13;36.25;;;12.90;;
37047;SDS011;23227;48.780;9.210;2022-12-18T05:18:17;29.50;;;12.65;;
37047;SDS011;23227;48.780;9.210;2022-12-18T05:21:20;35.80;;;15.55;;
37047;SDS011;23227;48.780;9.210;2022-12-18T05:24:23;36.90;;;12.38;;
37047;SDS011;23227;48.780;9.210;2022-12-18T05:27:25;43.35;;;14.85;;
37047;SDS011;23227;48.780;9.210;2022-12-18T05:30:28;41.70;;;13.43;;
37047;SDS011;23227;48.780;9.210;2022-12-18T05:33:33;39.55;;;13.82;;
37047;SDS011;23227;48.780;9.210;2022-12-18T05:36:36;39.83;;;14.15;;
37047;SDS011;23227;48.780;9.210;2022-12-18T05:39:39;38.95;;;13.40;;
37047;SDS011;23227;48.780;9.210;2022-12-18T05:42:42;49.33;;;14.18;;
37047;SDS011;23227;48.780;9.210;2022-12-18T05:45:45;40.38;;;14.60;;
37047;SDS011;23227;48.780;9.210;2022-12-18T05:48:49;42.35;;;12.43;;
37047;SDS011;23227;48.780;9.210;2022-12-18T05:51:52;35.28;;;12.90;;
37047;SDS011;23227;48.780;9.210;2022-12-18T05:54:54;40.78;;;15.43;;
37047;SDS011;23227;48.780;9.210;2022-12-18T05:57:57;36.85;;;13.07;;
37047;SDS011;23227;48.780;9.210;2022-12-18T06:01:05;43.42;;;14.48;;
37047;SDS011;23227;48.780;9.210;2022-12-18T06:04:10;34.95;;;14.02;;
37047;SDS011;23227;48.780;9.210;2022-12-18T06:07:13;36.92;;;12.75;;
37047;SDS011;23227;48.780;9.210;2022-12-18T06:10:16;36.70;;;13.07;;
37047;SDS011;23227;48.780;9.210;2022-12-18T06:13:19;37.10;;;13.80;;
37047;SDS011;23227;48.780;9.210;2022-12-18T06:16:22;42.70;;;13.68;;
37047;SDS011;23227;48.780;9.210;2022-12-18T06:19:26;33.17;;;12.98;;
37047;SDS011;23227;48.780;9.210;2022-12-18T06:22:30;35.72;;;14.32;;
37047;SDS011;23227;48.780;9.210;2022-12-18T06:25:33;33.97;;;13.15;;
37047;SDS011;23227;48.780;9.210;2022-12-18T06:28:39;37.15;;;13.65;;
37047;SDS011;23227;48.780;9.210;2022-12-18T06:31:42;37.17;;;14.20;;
37047;SDS011;23227;48.780;9.210;2022-12-18T06:34:46;38.97;;;13.10;;
37047;SDS011;23227;48.780;9.210;2022-12-18T06:37:49;42.03;;;14.05;;
37047;SDS011;23227;48.780;9.210;2022-12-18T06:40:52;32.70;;;12.13;;
37047;SDS011;23227;48.780;9.210;2022-12-18T06:43:55;41.30;;;11.85;;
37047;SDS011;23227;48.780;9.210;2022-12-18T06:47:00;36.38;;;12.45;;
37047;SDS011;23227;48.780;9.210;2022-12-18T06:50:05;34.42;;;11.85;;
37047;SDS011;23227;48.780;9.210;2022-12-18T06:53:08;41.63;;;15.23;;
37047;SDS011;23227;48.780;9.210;2022-12-18T06:56:10;42.30;;;13.27;;
37047;SDS011;23227;48.780;9.210;2022-12-18T06:59:13;35.25;;;12.77;;
37047;SDS011;23227;48.780;9.210;2022-12-18T07:02:16;38.53;;;12.02;;
37047;SDS011;23227;48.780;9.210;2022-12-18T07:05:21;30.17;;;11.70;;
37047;SDS011;23227;48.780;9.210;2022-12-18T07:08:24;37.88;;;12.30;;
37047;SDS011;23227;48.780;9.210;2022-12-18T07:11:28;39.05;;;13.25;;
37047;SDS011;23227;48.780;9.210;2022-12-18T07:14:31;40.45;;;12.60;;
37047;SDS011;23227;48.780;9.210;2022-12-18T07:17:33;37.42;;;12.65;;
37047;SDS011;23227;48.780;9.210;2022-12-18T07:20:37;36.05;;;13.05;;
37047;SDS011;23227;48.780;9.210;2022-12-18T07:23:40;38.38;;;12.20;;
37047;SDS011;23227;48.780;9.210;2022-12-18T07:26:45;33.72;;;12.45;;
37047;SDS011;23227;48.780;9.210;2022-12-18T07:29:47;36.50;;;12.07;;
37047;SDS011;23227;48.780;9.210;2022-12-18T07:32:50;31.60;;;12.40;;
37047;SDS011;23227;48.780;9.210;2022-12-18T07:35:54;36.05;;;13.88;;
37047;SDS011;23227;48.780;9.210;2022-12-18T07:38:57;35.33;;;12.68;;
37047;SDS011;23227;48.780;9.210;2022-12-18T07:41:59;38.10;;;14.63;;
37047;SDS011;23227;48.780;9.210;2022-12-18T07:45:34;38.10;;;14.32;;
37047;SDS011;23227;48.780;9.210;2022-12-18T07:48:37;32.50;;;10.98;;
37047;SDS011;23227;48.780;9.210;2022-12-18T07:51:41;33.13;;;13.60;;
37047;SDS011;23227;48.780;9.210;2022-12-18T07:54:44;42.22;;;13.20;;
37047;SDS011;23227;48.780;9.210;2022-12-18T07:57:50;36.33;;;12.68;;
37047;SDS011;23227;48.780;9.210;2022-12-18T08:01:01;38.65;;;14.07;;
37047;SDS011;23227;48.780;9.210;2022-12-18T08:04:06;40.70;;;13.13;;
37047;SDS011;23227;48.780;9.210;2022-12-18T08:07:10;41.05;;;14.05;;
37047;SDS011;23227;48.780;9.210;2022-12-18T08:10:13;45.17;;;13.98;;
37047;SDS011;23227;48.780;9.210;2022-12-18T08:13:15;36.45;;;13.43;;
37047;SDS011;23227;48.780;9.210;2022-12-18T08:16:18;37.05;;;13.27;;
37047;SDS011;23227;48.780;9.210;2022-12-18T08:19:22;41.03;;;15.13;;
37047;SDS011;23227;48.780;9.210;2022-12-18T08:22:26;35.38;;;14.63;;
37047;SDS011;23227;48.780;9.210;2022-12-18T08:25:29;39.20;;;13.90;;
37047;SDS011;23227;48.780;9.210;2022-12-18T08:28:31;46.63;;;14.43;;
37047;SDS011;23227;48.780;9.210;2022-12-18T08:31:34;39.30;;;14.05;;
37047;SDS011;23227;48.780;9.210;2022-12-18T08:34:36;34.22;;;13.65;;
37047;SDS011;23227;48.780;9.210;2022-12-18T08:37:41;36.03;;;14.48;;
37047;SDS011;23227;48.780;9.210;2022-12-18T08:40:44;38.50;;;14.85;;
37047;SDS011;23227;48.780;9.210;2022-12-18T08:43:46;38.45;;;13.95;;
37047;SDS011;23227;48.780;9.210;2022-12-18T08:47:06;40.10;;;15.30;;
37047;SDS011;23227;48.780;9.210;2022-12-18T08:50:09;38.05;;;15.35;;
37047;SDS011;23227;48.780;9.210;2022-12-18T08:53:14;37.42;;;14.55;;
37047;SDS011;23227;48.780;9.210;2022-12-18T08:56:18;42.85;;;15.82;;
37047;SDS011;23227;48.780;9.210;2022-12-18T08:59:20;46.20;;;16.98;;
37047;SDS011;23227;48.780;9.210;2022-12-18T09:02:24;51.45;;;18.27;;
37047;SDS011;23227;48.780;9.210;2022-12-18T09:05:27;48.50;;;17.30;;
37047;SDS011;23227;48.780;9.210;2022-12-18T09:08:31;44.20;;;17.30;;
37047;SDS011;23227;48.780;9.210;2022-12-18T09:11:34;42.50;;;16.27;;
37047;SDS011;23227;48.780;9.210;2022-12-18T09:14:37;46.35;;;16.40;;
37047;SDS011;23227;48.780;9.210;2022-12-18T09:17:40;51.20;;;16.88;;
37047;SDS011;23227;48.780;9.210;2022-12-18T09:20:42;50.60;;;16.70;;
37047;SDS011;23227;48.780;9.210;2022-12-18T09:23:50;51.42;;;16.35;;
37047;SDS011;23227;48.780;9.210;2022-12-18T09:26:53;47.13;;;16.38;;
37047;SDS011;23227;48.780;9.210;2022-12-18T09:29:58;41.22;;;15.35;;
37047;SDS011;23227;48.780;9.210;2022-12-18T09:33:00;45.28;;;17.00;;
37047;SDS011;23227;48.780;9.210;2022-12-18T09:36:04;45.22;;;16.42;;
37047;SDS011;23227;48.780;9.210;2022-12-18T09:39:10;48.40;;;17.70;;
37047;SDS011;23227;48.780;9.210;2022-12-18T09:42:13;46.80;;;17.17;;
37047;SDS011;23227;48.780;9.210;2022-12-18T09:45:21;49.67;;;19.05;;
37047;SDS011;23227;48.780;9.210;2022-12-18T09:48:25;52.13;;;18.30;;
37047;SDS011;23227;48.780;9.210;2022-12-18T09:51:32;52.67;;;18.85;;
37047;SDS011;23227;48.780;9.210;2022-12-18T09:54:39;49.22;;;19.10;;
37047;SDS011;23227;48.780;9.210;2022-12-18T09:57:45;50.40;;;19.77;;
37047;SDS011;23227;48.780;9.210;2022-12-18T10:00:51;49.63;;;18.30;;
37047;SDS011;23227;48.780;9.210;2022-12-18T10:03:53;46.30;;;19.10;;
37047;SDS011;23227;48.780;9.210;2022-12-18T10:06:58;52.40;;;17.92;;
37047;SDS011;23227;48.780;9.210;2022-12-18T10:10:13;49.33;;;18.27;;
37047;SDS011;23227;48.780;9.210;2022-12-18T10:13:22;47.33;;;16.95;;
37047;SDS011;23227;48.780;9.210;2022-12-18T10:16:27;52.03;;;18.15;;
37047;SDS011;23227;48.780;9.210;2022-12-18T10:19:37;49.42;;;18.45;;
37047;SDS011;23227;48.780;9.210;2022-12-18T10:22:48;55.42;;;18.90;;
37047;SDS011;23227;48.780;9.210;2022-12-18T10:25:58;52.95;;;18.73;;
37047;SDS011;23227;48.780;9.210;2022-12-18T10:29:06;53.95;;;17.13;;
37047;SDS011;23227;48.780;9.210;2022-12-18T10:32:13;42.58;;;15.98;;
37047;SDS011;23227;48.780;9.210;2022-12-18T10:35:18;45.33;;;16.67;;
37047;SDS011;23227;48.780;9.210;2022-12-18T10:38:22;45.53;;;17.58;;
37047;SDS011;23227;48.780;9.210;2022-12-18T10:41:28;48.97;;;17.92;;
37047;SDS011;23227;48.780;9.210;2022-12-18T10:44:31;52.35;;;19.08;;
37047;SDS011;23227;48.780;9.210;2022-12-18T10:47:34;50.70;;;19.05;;
37047;SDS011;23227;48.780;9.210;2022-12-18T10:50:37;51.75;;;20.23;;
37047;SDS011;23227;48.780;9.210;2022-12-18T10:54:00;47.13;;;18.30;;
37047;SDS011;23227;48.780;9.210;2022-12-18T10:57:20;49.10;;;18.42;;
37047;SDS011;23227;48.780;9.210;2022-12-18T11:00:32;50.80;;;17.63;;
37047;SDS011;23227;48.780;9.210;2022-12-18T11:03:37;46.75;;;18.40;;
37047;SDS011;23227;48.780;9.210;2022-12-18T11:06:52;50.53;;;19.55;;
37047;SDS011;23227;48.780;9.210;2022-12-18T11:10:00;51.25;;;19.45;;
37047;SDS011;23227;48.780;9.210;2022-12-18T11:13:12;46.47;;;18.88;;
37047;SDS011;23227;48.780;9.210;2022-12-18T11:16:18;47.85;;;17.30;;
37047;SDS011;23227;48.780;9.210;2022-12-18T11:19:23;47.03;;;16.42;;
37047;SDS011;23227;48.780;9.210;2022-12-18T11:22:31;45.78;;;17.38;;
37047;SDS011;23227;48.780;9.210;2022-12-18T11:25:35;44.85;;;16.67;;
37047;SDS011;23227;48.780;9.210;2022-12-18T11:28:42;44.60;;;16.60;;
37047;SDS011;23227;48.780;9.210;2022-12-18T11:31:46;40.87;;;16.77;;
37047;SDS011;23227;48.780;9.210;2022-12-18T11:34:49;45.37;;;16.97;;
37047;SDS011;23227;48.780;9.210;2022-12-18T11:38:01;40.20;;;13.67;;
37047;SDS011;23227;48.780;9.210;2022-12-18T11:41:13;33.33;;;12.70;;
37047;SDS011;23227;48.780;9.210;2022-12-18T11:44:48;34.83;;;13.90;;
37047;SDS011;23227;48.780;9.210;2022-12-18T11:47:54;38.73;;;13.67;;
37047;SDS011;23227;48.780;9.210;2022-12-18T11:51:00;36.50;;;14.30;;
37047;SDS011;23227;48.780;9.210;2022-12-18T11:54:08;38.53;;;11.93;;
37047;SDS011;23227;48.780;9.210;2022-12-18T11:57:14;34.03;;;13.13;;
37047;SDS011;23227;48.780;9.210;2022-12-18T12:00:22;38.93;;;12.77;;
37047;SDS011;23227;48.780;9.210;2022-12-18T12:03:36;40.47;;;13.60;;
37047;SDS011;23227;48.780;9.210;2022-12-18T12:06:56;38.60;;;14.17;;
37047;SDS011;23227;48.780;9.210;2022-12-18T12:10:09;43.63;;;14.80;;
37047;SDS011;23227;48.780;9.210;2022-12-18T12:13:23;34.87;;;13.70;;
37047;SDS011;23227;48.780;9.210;2022-12-18T12:16:34;40.27;;;13.77;;
37047;SDS011;23227;48.780;9.210;2022-12-18T12:19:43;37.13;;;13.27;;
37047;SDS011;23227;48.780;9.210;2022-12-18T12:22:51;36.20;;;12.30;;
37047;SDS011;23227;48.780;9.210;2022-12-18T12:25:59;33.40;;;12.83;;
37047;SDS011;23227;48.780;9.210;2022-12-18T12:29:07;28.90;;;12.93;;
37047;SDS011;23227;48.780;9.210;2022-12-18T12:32:25;33.37;;;12.50;;
37047;SDS011;23227;48.780;9.210;2022-12-18T12:35:37;38.30;;;14.00;;
37047;SDS011;23227;48.780;9.210;2022-12-18T12:38:49;34.17;;;13.97;;
37047;SDS011;23227;48.780;9.210;2022-12-18T12:41:54;42.23;;;12.67;;
37047;SDS011;23227;48.780;9.210;2022-12-18T12:45:25;30.87;;;11.97;;
37047;SDS011;23227;48.780;9.210;2022-12-18T12:48:42;34.83;;;13.43;;
37047;SDS011;23227;48.780;9.210;2022-12-18T12:51:47;35.63;;;12.13;;
37047;SDS011;23227;48.780;9.210;2022-12-18T12:54:57;34.47;;;12.60;;
37047;SDS011;23227;48.780;9.210;2022-12-18T12:58:02;36.90;;;13.40;;
37047;SDS011;23227;48.780;9.210;2022-12-18T13:01:11;43.40;;;14.13;;
37047;SDS011;23227;48.780;9.210;2022-12-18T13:04:27;34.13;;;13.87;;
37047;SDS011;23227;48.780;9.210;2022-12-18T13:07:37;39.40;;;12.63;;
37047;SDS011;23227;48.780;9.210;2022-12-18T13:10:42;38.27;;;14.47;;
37047;SDS011;23227;48.780;9.210;2022-12-18T13:13:49;37.88;;;14.60;;
37047;SDS011;23227;48.780;9.210;2022-12-18T13:20:31;39.73;;;13.67;;
37047;SDS011;23227;48.780;9.210;2022-12-18T13:23:35;41.30;;;14.13;;
37047;SDS011;23227;48.780;9.210;2022-12-18T13:26:42;36.47;;;14.23;;
37047;SDS011;23227;48.780;9.210;2022-12-18T13:29:45;39.80;;;15.10;;
37047;SDS011;23227;48.780;9.210;2022-12-18T13:32:48;42.50;;;16.38;;
37047;SDS011;23227;48.780;9.210;2022-12-18T13:36:32;41.77;;;15.57;;
37047;SDS011;23227;48.780;9.210;2022-12-18T13:39:36;36.33;;;14.90;;
37047;SDS011;23227;48.780;9.210;2022-12-18T13:42:39;44.33;;;17.33;;
37047;SDS011;23227;48.780;9.210;2022-12-18T13:46:01;37.57;;;14.97;;
37047;SDS011;23227;48.780;9.210;2022-12-18T13:49:17;39.67;;;16.30;;
37047;SDS011;23227;48.780;9.210;2022-12-18T13:52:26;40.63;;;15.93;;
37047;SDS011;23227;48.780;9.210;2022-12-18T13:55:29;43.67;;;16.60;;
37047;SDS011;23227;48.780;9.210;2022-12-18T13:58:32;39.40;;;16.63;;
37047;SDS011;23227;48.780;9.210;2022-12-18T14:01:35;40.42;;;14.90;;
37047;SDS011;23227;48.780;9.210;2022-12-18T14:04:38;40.03;;;15.50;;
37047;SDS011;23227;48.780;9.210;2022-12-18T14:07:42;38.50;;;14.37;;
37047;SDS011;23227;48.780;9.210;2022-12-18T14:10:49;38.83;;;16.23;;
37047;SDS011;23227;48.780;9.210;2022-12-18T14:13:54;36.70;;;15.43;;
37047;SDS011;23227;48.780;9.210;2022-12-18T14:16:56;43.83;;;17.73;;
37047;SDS011;23227;48.780;9.210;2022-12-18T14:19:59;43.42;;;17.60;;
37047;SDS011;23227;48.780;9.210;2022-12-18T14:23:04;37.57;;;15.77;;
37047;SDS011;23227;48.780;9.210;2022-12-18T14:26:19;37.87;;;15.77;;
37047;SDS011;23227;48.780;9.210;2022-12-18T14:29:24;43.67;;;16.50;;
37047;SDS011;23227;48.780;9.210;2022-12-18T14:32:28;38.37;;;15.37;;
37047;SDS011;23227;48.780;9.210;2022-12-18T14:35:31;41.03;;;15.13;;
37047;SDS011;23227;48.780;9.210;2022-12-18T14:38:36;41.38;;;14.80;;
37047;SDS011;23227;48.780;9.210;2022-12-18T14:41:39;44.07;;;15.53;;
37047;SDS011;23227;48.780;9.210;2022-12-18T14:44:41;45.97;;;15.43;;
37047;SDS011;23227;48.780;9.210;2022-12-18T14:48:05;45.90;;;15.63;;
37047;SDS011;23227;48.780;9.210;2022-12-18T14:51:15;43.20;;;16.80;;
37047;SDS011;23227;48.780;9.210;2022-12-18T14:54:20;48.77;;;17.13;;
37047;SDS011;23227;48.780;9.210;2022-12-18T14:57:23;54.57;;;18.17;;
37047;SDS011;23227;48.780;9.210;2022-12-18T15:00:27;49.17;;;16.37;;
37047;SDS011;23227;48.780;9.210;2022-12-18T15:03:30;52.67;;;16.80;;
37047;SDS011;23227;48.780;9.210;2022-12-18T15:06:34;43.97;;;15.60;;
37047;SDS011;23227;48.780;9.210;2022-12-18T15:09:40;46.43;;;17.00;;
37047;SDS011;23227;48.780;9.210;2022-12-18T15:12:44;50.73;;;17.30;;
37047;SDS011;23227;48.780;9.210;2022-12-18T15:15:48;42.92;;;16.88;;
37047;SDS011;23227;48.780;9.210;2022-12-18T15:18:51;42.53;;;16.10;;
37047;SDS011;23227;48.780;9.210;2022-12-18T15:22:03;45.13;;;16.83;;
37047;SDS011;23227;48.780;9.210;2022-12-18T15:25:21;41.07;;;15.93;;
37047;SDS011;23227;48.780;9.210;2022-12-18T15:28:31;42.43;;;16.10;;
37047;SDS011;23227;48.780;9.210;2022-12-18T15:31:35;51.47;;;15.77;;
37047;SDS011;23227;48.780;9.210;2022-12-18T15:34:38;53.53;;;16.47;;
37047;SDS011;23227;48.780;9.210;2022-12-18T15:37:41;50.33;;;15.27;;
37047;SDS011;23227;48.780;9.210;2022-12-18T15:40:45;43.42;;;14.20;;
37047;SDS011;23227;48.780;9.210;2022-12-18T15:43:49;45.63;;;17.13;;
37047;SDS011;23227;48.780;9.210;2022-12-18T15:46:52;49.13;;;16.90;;
37047;SDS011;23227;48.780;9.210;2022-12-18T15:49:55;50.33;;;16.37;;
37047;SDS011;23227;48.780;9.210;2022-12-18T15:52:58;51.60;;;17.37;;
37047;SDS011;23227;48.780;9.210;2022-12-18T15:56:02;52.85;;;16.98;;
37047;SDS011;23227;48.780;9.210;2022-12-18T15:59:24;44.10;;;16.77;;
37047;SDS011;23227;48.780;9.210;2022-12-18T16:02:27;54.63;;;17.20;;
37047;SDS011;23227;48.780;9.210;2022-12-18T16:05:30;53.20;;;17.50;;
37047;SDS011;23227;48.780;9.210;2022-12-18T16:08:33;48.13;;;16.52;;
37047;SDS011;23227;48.780;9.210;2022-12-18T16:11:37;50.42;;;17.38;;
37047;SDS011;23227;48.780;9.210;2022-12-18T16:14:42;52.42;;;18.17;;
37047;SDS011;23227;48.780;9.210;2022-12-18T16:17:45;48.75;;;17.52;;
37047;SDS011;23227;48.780;9.210;2022-12-18T16:20:48;47.58;;;16.83;;
37047;SDS011;23227;48.780;9.210;2022-12-18T16:23:51;48.13;;;17.13;;
37047;SDS011;23227;48.780;9.210;2022-12-18T16:26:55;62.67;;;19.98;;
37047;SDS011;23227;48.780;9.210;2022-12-18T16:30:00;52.85;;;17.33;;
37047;SDS011;23227;48.780;9.210;2022-12-18T16:33:02;51.67;;;18.17;;
37047;SDS011;23227;48.780;9.210;2022-12-18T16:36:07;48.42;;;16.05;;
37047;SDS011;23227;48.780;9.210;2022-12-18T16:39:10;54.17;;;18.00;;
37047;SDS011;23227;48.780;9.210;2022-12-18T16:42:15;54.50;;;18.13;;
37047;SDS011;23227;48.780;9.210;2022-12-18T16:45:20;54.92;;;18.60;;
37047;SDS011;23227;48.780;9.210;2022-12-18T16:48:23;54.95;;;18.33;;
37047;SDS011;23227;48.780;9.210;2022-12-18T16:51:26;53.65;;;18.88;;
37047;SDS011;23227;48.780;9.210;2022-12-18T16:54:29;53.42;;;18.05;;
37047;SDS011;23227;48.780;9.210;2022-12-18T16:57:33;50.78;;;17.30;;
37047;SDS011;23227;48.780;9.210;2022-12-18T17:00:38;56.60;;;19.38;;
37047;SDS011;23227;48.780;9.210;2022-12-18T17:03:41;48.60;;;18.38;;
37047;SDS011;23227;48.780;9.210;2022-12-18T17:06:47;49.97;;;18.85;;
37047;SDS011;23227;48.780;9.210;2022-12-18T17:09:52;56.15;;;19.33;;
37047;SDS011;23227;48.780;9.210;2022-12-18T17:12:56;49.30;;;19.13;;
37047;SDS011;23227;48.780;9.210;2022-12-18T17:16:03;52.42;;;17.85;;
37047;SDS011;23227;48.780;9.210;2022-12-18T17:19:06;45.40;;;17.60;;
37047;SDS011;23227;48.780;9.210;2022-12-18T17:22:16;49.55;;;17.52;;
37047;SDS011;23227;48.780;9.210;2022-12-18T17:25:19;52.60;;;17.60;;
37047;SDS011;23227;48.780;9.210;2022-12-18T17:28:26;51.60;;;18.13;;
37047;SDS011;23227;48.780;9.210;2022-12-18T17:31:29;49.53;;;17.73;;
37047;SDS011;23227;48.780;9.210;2022-12-18T17:34:32;48.15;;;18.95;;
37047;SDS011;23227;48.780;9.210;2022-12-18T17:37:34;56.40;;;19.83;;
37047;SDS011;23227;48.780;9.210;2022-12-18T17:40:37;55.95;;;18.45;;
37047;SDS011;23227;48.780;9.210;2022-12-18T17:43:50;54.65;;;18.38;;
37047;SDS011;23227;48.780;9.210;2022-12-18T17:46:54;48.63;;;18.07;;
37047;SDS011;23227;48.780;9.210;2022-12-18T17:49:56;45.20;;;18.07;;
37047;SDS011;23227;48.780;9.210;2022-12-18T17:52:59;45.97;;;16.50;;
37047;SDS011;23227;48.780;9.210;2022-12-18T17:56:02;56.53;;;18.23;;
37047;SDS011;23227;48.780;9.210;2022-12-18T17:59:09;45.50;;;16.93;;
37047;SDS011;23227;48.780;9.210;2022-12-18T18:02:12;53.47;;;18.33;;
37047;SDS011;23227;48.780;9.210;2022-12-18T18:05:15;48.78;;;17.35;;
37047;SDS011;23227;48.780;9.210;2022-12-18T18:08:18;47.97;;;17.27;;
37047;SDS011;23227;48.780;9.210;2022-12-18T18:11:21;46.27;;;16.53;;
37047;SDS011;23227;48.780;9.210;2022-12-18T18:14:44;46.27;;;17.20;;
37047;SDS011;23227;48.780;9.210;2022-12-18T18:17:47;45.37;;;17.63;;
37047;SDS011;23227;48.780;9.210;2022-12-18T18:20:49;46.07;;;16.93;;
37047;SDS011;23227;48.780;9.210;2022-12-18T18:23:54;55.47;;;19.03;;